createdAt,value
2018-04-06T19:45:54.379Z,58.17
2018-04-06T19:48:22.015Z,59.57
2018-04-06T19:50:56.800Z,59.97
2018-04-06T19:53:24.064Z,60.26
2018-04-06T19:55:52.399Z,60.59
2018-04-06T19:58:19.699Z,59.89
2018-04-06T20:00:48.041Z,59.87
2018-04-06T20:03:15.578Z,59.44
2018-04-06T20:05:42.679Z,59.43
2018-04-06T20:08:09.999Z,58.69
2018-04-06T20:10:40.506Z,58.44
2018-04-06T20:13:07.950Z,58.50
2018-04-06T20:15:35.282Z,59.51
2018-04-06T20:18:02.631Z,59.16
2018-04-06T20:20:30.854Z,59.04
2018-04-06T20:22:58.810Z,59.69
2018-04-06T20:25:26.174Z,59.76
2018-04-06T20:27:53.495Z,59.40
2018-04-06T20:30:31.352Z,59.06
2018-04-06T20:32:58.554Z,58.83
2018-04-06T20:35:25.868Z,59.46
2018-04-06T20:37:53.180Z,59.22
2018-04-06T20:40:21.381Z,59.63
2018-04-06T20:42:48.682Z,59.41
2018-04-06T20:45:17.573Z,59.88
2018-04-06T20:47:44.744Z,59.88
2018-04-06T20:50:16.070Z,60.41
2018-04-06T20:52:44.066Z,60.29
2018-04-06T20:55:12.026Z,60.48
2018-04-06T20:57:39.370Z,60.02
2018-04-06T21:00:10.299Z,59.85
2018-04-06T21:02:38.270Z,59.35
2018-04-06T21:05:05.996Z,59.21
2018-04-06T21:07:33.151Z,58.55
2018-04-06T21:10:00.279Z,58.35
2018-04-06T21:12:27.462Z,58.08
2018-04-06T21:14:54.702Z,57.72
2018-04-06T21:17:21.910Z,57.44
2018-04-06T21:19:59.211Z,56.92
2018-04-06T21:22:26.561Z,56.86
2018-04-06T21:25:01.156Z,56.12
2018-04-06T21:27:28.921Z,56.25
2018-04-06T21:30:00.699Z,55.19
2018-04-06T21:32:27.935Z,55.07
2018-04-06T21:34:55.262Z,54.79
2018-04-06T21:37:22.497Z,54.59
2018-04-06T21:39:53.329Z,54.34
2018-04-06T21:42:21.026Z,53.88
2018-04-06T21:44:48.364Z,53.57
2018-04-06T21:47:16.249Z,53.36
2018-04-06T21:49:54.302Z,53.12
2018-04-06T21:52:21.590Z,53.21
2018-04-06T21:54:48.842Z,52.88
2018-04-06T21:57:16.138Z,52.42
2018-04-06T21:59:47.507Z,52.23
2018-04-06T22:02:14.722Z,52.12
2018-04-06T22:04:42.097Z,51.68
2018-04-06T22:07:09.346Z,51.82
2018-04-06T22:09:37.506Z,51.43
2018-04-06T22:12:04.718Z,51.59
2018-04-06T22:14:31.867Z,51.80
2018-04-06T22:16:59.095Z,51.46
2018-04-06T22:19:26.428Z,51.71
2018-04-06T22:21:54.866Z,51.48
2018-04-06T22:24:22.158Z,50.40
2018-04-06T22:26:49.382Z,49.97
2018-04-06T22:29:16.521Z,50.33
2018-04-06T22:31:51.315Z,49.79
2018-04-06T22:34:18.550Z,49.54
2018-04-06T22:36:45.755Z,49.36
2018-04-06T22:39:12.932Z,49.50
2018-04-06T22:41:41.358Z,49.34
2018-04-06T22:44:08.537Z,49.16
2018-04-06T22:46:35.858Z,49.33
2018-04-06T22:49:03.039Z,49.08
2018-04-06T22:51:31.486Z,49.05
2018-04-06T22:53:58.838Z,48.92
2018-04-06T22:56:25.960Z,48.25
2018-04-06T22:58:53.842Z,48.35
2018-04-06T23:01:24.101Z,48.53
2018-04-06T23:03:51.341Z,48.39
2018-04-06T23:06:19.333Z,48.76
2018-04-06T23:08:47.030Z,48.61
2018-04-06T23:11:14.702Z,48.38
2018-04-06T23:13:41.985Z,48.32
2018-04-06T23:16:09.275Z,47.66
2018-04-06T23:18:36.947Z,47.47
2018-04-06T23:21:08.138Z,47.53
2018-04-06T23:23:35.470Z,47.07
2018-04-06T23:26:02.642Z,46.54
2018-04-06T23:28:30.145Z,45.99
2018-04-06T23:31:01.021Z,45.86
2018-04-06T23:33:28.338Z,45.70
2018-04-06T23:35:55.587Z,45.45
2018-04-06T23:38:23.196Z,45.46
2018-04-06T23:41:02.186Z,44.58
2018-04-06T23:43:29.390Z,44.14
2018-04-06T23:45:56.632Z,43.69
2018-04-06T23:48:23.789Z,43.04
2018-04-06T23:50:52.262Z,42.65
2018-04-06T23:53:20.205Z,42.20
2018-04-06T23:55:47.571Z,42.27
2018-04-06T23:58:14.674Z,41.89
